createdAt,value
2018-05-25T00:01:09.780Z,17.53
2018-05-25T00:04:33.159Z,17.59
2018-05-25T00:07:56.626Z,17.60
2018-05-25T00:11:20.042Z,17.62
2018-05-25T00:14:43.705Z,17.70
2018-05-25T00:18:07.245Z,17.55
2018-05-25T00:21:30.635Z,17.42
2018-05-25T00:24:54.141Z,17.35
2018-05-25T00:28:17.639Z,17.32
2018-05-25T00:31:41.027Z,17.58
2018-05-25T00:35:04.434Z,17.25
2018-05-25T00:38:27.958Z,17.04
2018-05-25T00:41:51.355Z,17.18
2018-05-25T00:45:14.757Z,17.02
2018-05-25T00:48:38.184Z,16.84
2018-05-25T00:52:01.585Z,17.17
2018-05-25T00:55:40.715Z,17.09
2018-05-25T00:59:05.289Z,16.95
2018-05-25T01:02:28.685Z,17.16
2018-05-25T01:05:52.204Z,16.85
2018-05-25T01:09:15.579Z,16.84
2018-05-25T01:12:41.243Z,17.03
2018-05-25T01:16:05.627Z,16.88
2018-05-25T01:19:30.121Z,17.13
2018-05-25T01:22:55.663Z,17.02
2018-05-25T01:26:19.101Z,16.69
2018-05-25T01:29:42.516Z,16.88
2018-05-25T01:33:05.921Z,16.90
2018-05-25T01:36:29.376Z,16.92
2018-05-25T01:39:52.807Z,16.78
2018-05-25T01:43:16.195Z,16.75
2018-05-25T01:46:39.809Z,16.59
2018-05-25T01:50:03.110Z,16.69
2018-05-25T01:53:26.738Z,16.75
2018-05-25T01:56:50.029Z,16.64
2018-05-25T02:00:13.425Z,16.22
2018-05-25T02:03:36.905Z,16.31
2018-05-25T02:07:00.320Z,16.16
2018-05-25T02:10:23.729Z,16.43
2018-05-25T02:13:48.678Z,16.40
2018-05-25T02:17:12.697Z,16.52
2018-05-25T02:20:36.329Z,16.39
2018-05-25T02:24:01.687Z,16.28
2018-05-25T02:27:25.091Z,16.22
2018-05-25T02:30:48.696Z,16.06
2018-05-25T02:34:14.103Z,15.85
2018-05-25T02:37:37.539Z,15.99
2018-05-25T02:41:01.012Z,15.81
2018-05-25T02:44:24.458Z,16.00
2018-05-25T02:47:47.799Z,15.88
2018-05-25T02:51:11.407Z,15.88
2018-05-25T02:54:34.726Z,15.92
2018-05-25T02:57:58.132Z,16.03
2018-05-25T03:01:21.652Z,16.09
2018-05-25T03:04:45.039Z,16.10
2018-05-25T03:08:10.574Z,15.98
2018-05-25T03:11:34.039Z,15.69
2018-05-25T03:14:58.905Z,15.78
2018-05-25T03:18:23.166Z,15.77
2018-05-25T03:21:48.657Z,15.65
2018-05-25T03:25:11.966Z,15.81
2018-05-25T03:28:35.349Z,15.57
2018-05-25T03:31:58.797Z,15.48
2018-05-25T03:35:22.285Z,15.62
2018-05-25T03:38:45.607Z,15.63
2018-05-25T03:42:09.161Z,15.72
2018-05-25T03:45:34.617Z,15.69
2018-05-25T03:48:58.067Z,15.44
2018-05-25T03:52:23.553Z,15.45
2018-05-25T03:55:46.985Z,15.40
2018-05-25T03:59:30.233Z,15.39
2018-05-25T04:02:54.923Z,15.37
2018-05-25T04:06:19.713Z,15.35
2018-05-25T04:09:43.777Z,15.45
2018-05-25T04:13:07.227Z,15.47
2018-05-25T04:16:30.648Z,15.58
2018-05-25T04:19:54.113Z,15.56
2018-05-25T04:23:17.538Z,15.52
2018-05-25T04:26:43.107Z,15.65
2018-05-25T04:30:08.837Z,15.67
2018-05-25T04:33:32.173Z,15.66
2018-05-25T04:36:55.488Z,15.74
2018-05-25T04:40:19.030Z,15.54
2018-05-25T04:43:42.391Z,15.82
2018-05-25T04:47:05.854Z,16.07
2018-05-25T04:50:29.238Z,16.15
2018-05-25T04:53:52.649Z,15.71
2018-05-25T04:57:16.274Z,15.76
2018-05-25T05:00:41.680Z,16.05
2018-05-25T05:04:07.275Z,16.19
2018-05-25T05:07:32.722Z,16.08
2018-05-25T05:10:56.088Z,16.33
2018-05-25T05:14:19.540Z,16.29
2018-05-25T05:17:42.922Z,16.58
2018-05-25T05:21:06.383Z,16.18
2018-05-25T05:24:29.985Z,16.86
2018-05-25T05:27:53.349Z,17.01
2018-05-25T05:31:16.822Z,16.58
2018-05-25T05:34:42.203Z,16.88
2018-05-25T05:38:06.616Z,16.89
2018-05-25T05:41:30.150Z,17.27
2018-05-25T05:44:55.695Z,17.39
2018-05-25T05:48:19.281Z,17.30
2018-05-25T05:51:42.815Z,17.35
2018-05-25T05:55:06.128Z,17.02
2018-05-25T05:58:29.484Z,17.45
2018-05-25T06:01:52.789Z,17.62
2018-05-25T06:05:16.062Z,17.42
2018-05-25T06:08:39.349Z,17.64
2018-05-25T06:12:02.653Z,17.83
2018-05-25T06:15:25.945Z,17.84
2018-05-25T06:18:50.065Z,18.05
2018-05-25T06:22:13.343Z,18.22
2018-05-25T06:25:36.613Z,18.07
2018-05-25T06:28:59.893Z,18.25
2018-05-25T06:32:23.638Z,18.24
2018-05-25T06:35:46.941Z,18.49
2018-05-25T06:39:10.997Z,18.53
2018-05-25T06:42:34.268Z,18.84
2018-05-25T06:45:58.306Z,18.85
2018-05-25T06:49:21.612Z,18.99
2018-05-25T06:52:44.909Z,19.01
2018-05-25T06:56:08.528Z,19.26
2018-05-25T06:59:31.955Z,19.35
2018-05-25T07:02:55.242Z,19.70
2018-05-25T07:06:19.411Z,19.72
2018-05-25T07:09:42.826Z,19.68
2018-05-25T07:13:06.106Z,19.86
2018-05-25T07:16:29.386Z,19.90
2018-05-25T07:19:52.681Z,19.85
2018-05-25T07:23:16.020Z,19.91
2018-05-25T07:26:39.297Z,19.90
2018-05-25T07:30:02.613Z,20.03
2018-05-25T07:33:26.134Z,20.11
2018-05-25T07:36:49.546Z,20.38
2018-05-25T07:40:12.868Z,20.50
2018-05-25T07:43:36.916Z,20.55
2018-05-25T07:47:00.214Z,20.73
2018-05-25T07:50:23.567Z,21.16
2018-05-25T07:53:46.836Z,21.44
2018-05-25T07:57:10.175Z,21.61
2018-05-25T08:00:33.560Z,21.61
2018-05-25T08:03:56.845Z,21.42
2018-05-25T08:07:20.134Z,21.76
2018-05-25T08:10:43.413Z,22.27
2018-05-25T08:14:06.736Z,22.33
2018-05-25T08:17:30.835Z,22.14
2018-05-25T08:20:54.889Z,22.03
2018-05-25T08:24:18.175Z,22.05
2018-05-25T08:27:41.541Z,22.20
2018-05-25T08:31:05.627Z,22.22
2018-05-25T08:34:28.916Z,22.21
2018-05-25T08:37:52.232Z,22.46
2018-05-25T08:41:15.510Z,22.59
2018-05-25T08:44:38.932Z,22.56
2018-05-25T08:48:02.241Z,22.81
2018-05-25T08:51:25.532Z,22.79
2018-05-25T08:54:48.824Z,23.17
2018-05-25T08:58:12.873Z,22.86
2018-05-25T09:01:36.152Z,23.06
2018-05-25T09:04:59.434Z,23.41
2018-05-25T09:08:22.917Z,23.71
2018-05-25T09:11:47.447Z,23.76
2018-05-25T09:15:11.671Z,23.67
2018-05-25T09:18:35.701Z,23.82
2018-05-25T09:21:59.285Z,24.22
2018-05-25T09:25:22.791Z,24.10
2018-05-25T09:28:46.083Z,24.34
2018-05-25T09:32:09.468Z,24.29
2018-05-25T09:35:32.773Z,24.28
2018-05-25T09:38:56.107Z,24.05
2018-05-25T09:42:20.272Z,24.13
2018-05-25T09:45:44.528Z,24.30
2018-05-25T09:49:07.839Z,24.75
2018-05-25T09:52:31.111Z,24.55
2018-05-25T09:55:54.408Z,24.52
2018-05-25T09:59:17.682Z,24.55
2018-05-25T10:02:40.978Z,24.51
2018-05-25T10:06:04.286Z,25.19
2018-05-25T10:09:28.759Z,25.11
2018-05-25T10:12:52.815Z,25.64
2018-05-25T10:16:16.076Z,25.23
2018-05-25T10:27:38.106Z,25.68
2018-05-25T10:31:02.205Z,25.89
2018-05-25T10:34:25.522Z,25.50
2018-05-25T10:37:49.712Z,25.87
2018-05-25T10:41:13.806Z,26.23
2018-05-25T10:44:37.118Z,26.25
2018-05-25T10:48:00.434Z,26.48
2018-05-25T10:51:23.719Z,25.52
2018-05-25T10:54:47.023Z,25.95
2018-05-25T10:58:10.328Z,25.87
2018-05-25T11:01:33.674Z,25.21
2018-05-25T11:04:57.005Z,25.47
2018-05-25T11:08:20.476Z,26.45
2018-05-25T11:11:43.792Z,26.19
2018-05-25T11:15:07.267Z,25.74
2018-05-25T11:18:30.544Z,26.01
2018-05-25T11:21:53.987Z,27.12
2018-05-25T11:25:17.319Z,27.69
2018-05-25T11:28:40.640Z,27.08
2018-05-25T11:32:03.943Z,26.73
2018-05-25T11:35:27.781Z,26.85
2018-05-25T11:38:51.063Z,25.86
2018-05-25T11:42:14.334Z,25.58
2018-05-25T11:45:37.612Z,25.77
2018-05-25T11:49:01.083Z,26.39
2018-05-25T11:52:24.378Z,26.39
2018-05-25T11:55:48.534Z,26.22
2018-05-25T11:59:11.829Z,26.94
2018-05-25T12:02:35.110Z,26.62
2018-05-25T12:05:58.614Z,26.46
2018-05-25T12:09:22.258Z,26.62
2018-05-25T12:12:45.537Z,27.00
2018-05-25T12:16:09.024Z,27.03
2018-05-25T12:19:33.076Z,26.75
2018-05-25T12:22:56.374Z,26.91
2018-05-25T12:26:19.641Z,27.28
2018-05-25T12:29:42.926Z,26.79
2018-05-25T12:33:06.270Z,27.22
2018-05-25T12:36:29.552Z,27.71
2018-05-25T12:39:52.901Z,27.29
2018-05-25T12:43:16.219Z,27.73
2018-05-25T12:46:39.558Z,27.59
2018-05-25T12:50:03.648Z,27.40
2018-05-25T12:53:26.946Z,27.58
2018-05-25T12:56:50.352Z,27.90
2018-05-25T13:00:14.102Z,27.38
2018-05-25T13:03:37.400Z,28.04
2018-05-25T13:07:00.703Z,28.66
2018-05-25T13:10:24.024Z,28.59
2018-05-25T13:13:47.309Z,28.35
2018-05-25T13:17:10.569Z,28.61
2018-05-25T13:20:33.927Z,28.54
2018-05-25T13:23:57.227Z,28.61
2018-05-25T13:27:21.335Z,29.05
2018-05-25T13:30:44.701Z,28.01
2018-05-25T13:34:08.059Z,28.27
2018-05-25T13:37:31.528Z,28.43
2018-05-25T13:40:54.834Z,28.27
2018-05-25T13:44:18.127Z,28.22
2018-05-25T13:47:41.619Z,27.66
2018-05-25T13:51:04.935Z,28.04
2018-05-25T13:54:28.301Z,27.74
2018-05-25T13:57:51.573Z,27.91
2018-05-25T14:01:14.849Z,28.08
2018-05-25T14:04:38.903Z,28.06
2018-05-25T14:08:02.198Z,27.83
2018-05-25T14:11:25.504Z,28.17
2018-05-25T14:14:48.798Z,28.13
2018-05-25T14:18:12.831Z,28.44
2018-05-25T14:21:36.113Z,28.01
2018-05-25T14:24:59.478Z,28.41
2018-05-25T14:28:22.760Z,28.41
2018-05-25T14:31:46.090Z,28.13
2018-05-25T14:35:09.379Z,28.13
2018-05-25T14:38:33.409Z,28.15
2018-05-25T14:41:56.698Z,28.93
2018-05-25T14:45:20.094Z,29.20
2018-05-25T14:48:43.533Z,28.83
2018-05-25T14:52:07.023Z,29.39
2018-05-25T14:55:30.440Z,30.27
2018-05-25T14:58:53.747Z,30.14
2018-05-25T15:02:17.077Z,29.70
2018-05-25T15:05:40.484Z,30.30
2018-05-25T15:09:03.752Z,30.04
2018-05-25T15:12:27.804Z,29.84
2018-05-25T15:15:51.122Z,30.24
2018-05-25T15:19:14.396Z,30.69
2018-05-25T15:22:37.679Z,30.40
2018-05-25T15:26:01.097Z,30.36
2018-05-25T15:29:24.466Z,30.44
2018-05-25T15:32:48.533Z,30.28
2018-05-25T15:36:11.801Z,30.97
2018-05-25T15:39:35.281Z,31.78
2018-05-25T15:42:59.088Z,31.76
2018-05-25T15:46:22.930Z,30.92
2018-05-25T15:49:48.682Z,31.33
2018-05-25T15:53:12.497Z,31.19
2018-05-25T15:56:38.074Z,30.90
2018-05-25T16:00:01.505Z,31.40
2018-05-25T16:03:24.922Z,32.00
2018-05-25T16:06:48.627Z,31.34
2018-05-25T16:10:12.005Z,30.67
2018-05-25T16:13:35.490Z,30.88
2018-05-25T16:16:59.072Z,31.77
2018-05-25T16:20:22.335Z,31.81
2018-05-25T16:23:48.056Z,31.14
2018-05-25T16:27:13.422Z,30.69
2018-05-25T16:30:36.864Z,31.14
2018-05-25T16:34:00.271Z,30.81
2018-05-25T16:37:23.703Z,31.02
2018-05-25T16:40:47.096Z,31.36
2018-05-25T16:44:12.757Z,30.26
2018-05-25T16:47:38.248Z,29.92
2018-05-25T16:51:01.581Z,30.28
2018-05-25T16:54:25.036Z,30.73
2018-05-25T16:57:48.483Z,30.48
2018-05-25T17:01:11.957Z,29.89
2018-05-25T17:04:35.361Z,29.94
2018-05-25T17:07:58.773Z,30.48
2018-05-25T17:11:22.159Z,29.99
2018-05-25T17:14:47.664Z,30.20
2018-05-25T17:18:11.191Z,30.29
2018-05-25T17:21:35.981Z,30.52
2018-05-25T17:25:00.099Z,30.22
2018-05-25T17:28:23.499Z,30.26
2018-05-25T17:31:48.443Z,30.10
2018-05-25T17:35:12.555Z,30.46
2018-05-25T17:38:35.875Z,30.40
2018-05-25T17:41:59.327Z,30.59
2018-05-25T17:45:22.915Z,29.84
2018-05-25T17:48:46.239Z,29.62
2018-05-25T17:52:09.586Z,29.49
2018-05-25T17:55:35.355Z,29.45
2018-05-25T17:58:58.632Z,29.23
2018-05-25T18:02:23.550Z,29.15
2018-05-25T18:05:48.153Z,28.82
2018-05-25T18:09:13.039Z,28.85
2018-05-25T18:12:37.975Z,28.84
2018-05-25T18:16:01.389Z,28.75
2018-05-25T18:19:26.231Z,28.13
2018-05-25T18:22:49.759Z,28.09
2018-05-25T18:26:13.329Z,27.90
2018-05-25T18:29:37.845Z,27.65
2018-05-25T18:33:01.255Z,27.32
2018-05-25T18:36:24.646Z,27.03
2018-05-25T18:39:50.326Z,26.97
2018-05-25T18:43:13.690Z,26.85
2018-05-25T18:46:37.052Z,26.54
2018-05-25T18:50:00.522Z,26.11
2018-05-25T18:53:24.096Z,25.93
2018-05-25T18:56:47.648Z,25.35
2018-05-25T19:00:13.042Z,24.99
2018-05-25T19:03:38.635Z,24.91
2018-05-25T19:07:02.615Z,24.58
2018-05-25T19:10:26.883Z,24.41
2018-05-25T19:18:20.668Z,24.14
2018-05-25T19:21:44.893Z,23.96
2018-05-25T19:25:08.839Z,23.82
2018-05-25T19:28:34.065Z,23.73
2018-05-25T19:31:57.924Z,23.49
2018-05-25T19:35:23.017Z,23.41
2018-05-25T19:38:46.622Z,23.31
2018-05-25T19:42:09.948Z,23.20
2018-05-25T19:45:33.369Z,23.00
2018-05-25T19:48:58.889Z,23.16
2018-05-25T19:52:22.348Z,22.97
2018-05-25T19:55:45.788Z,22.95
2018-05-25T19:59:09.210Z,22.92
2018-05-25T20:02:32.619Z,22.86
2018-05-25T20:05:58.163Z,22.57
2018-05-25T20:09:21.627Z,22.55
2018-05-25T20:12:45.017Z,22.55
2018-05-25T20:16:08.613Z,22.47
2018-05-25T20:19:35.458Z,22.37
2018-05-25T20:22:59.544Z,22.49
2018-05-25T20:26:22.865Z,22.31
2018-05-25T20:29:46.300Z,22.18
2018-05-25T20:33:09.774Z,22.24
2018-05-25T20:36:35.429Z,22.11
2018-05-25T20:39:58.810Z,21.97
2018-05-25T20:43:24.494Z,21.73
2018-05-25T20:46:47.820Z,21.55
2018-05-25T20:50:11.282Z,21.81
2018-05-25T20:53:34.886Z,21.52
2018-05-25T20:56:59.649Z,21.71
2018-05-25T21:00:23.841Z,21.57
2018-05-25T21:03:49.305Z,21.43
2018-05-25T21:07:12.684Z,21.50
2018-05-25T21:10:36.105Z,21.60
2018-05-25T21:13:59.588Z,21.41
2018-05-25T21:17:22.976Z,20.99
2018-05-25T21:20:46.534Z,21.13
2018-05-25T21:24:09.888Z,21.33
2018-05-25T21:27:33.394Z,21.12
2018-05-25T21:30:56.724Z,21.12
2018-05-25T21:34:20.156Z,20.90
2018-05-25T21:37:43.743Z,21.07
2018-05-25T21:41:07.029Z,21.21
2018-05-25T21:44:32.014Z,21.02
2018-05-25T21:47:56.072Z,20.76
2018-05-25T21:51:19.633Z,20.80
2018-05-25T21:54:43.023Z,20.77
2018-05-25T21:58:06.570Z,20.70
2018-05-25T22:01:30.067Z,20.54
2018-05-25T22:04:53.496Z,20.62
2018-05-25T22:08:16.948Z,20.59
2018-05-25T22:11:40.364Z,20.43
2018-05-25T22:15:03.800Z,20.30
2018-05-25T22:18:27.283Z,20.34
2018-05-25T22:21:50.680Z,20.10
2018-05-25T22:25:14.092Z,20.22
2018-05-25T22:28:38.956Z,20.01
2018-05-25T22:32:03.023Z,20.24
2018-05-25T22:35:26.440Z,20.14
2018-05-25T22:38:51.967Z,19.97
2018-05-25T22:42:33.110Z,19.98
2018-05-25T22:46:15.379Z,20.00
2018-05-25T22:49:57.667Z,20.14
2018-05-25T22:53:27.219Z,20.10
2018-05-25T22:56:52.116Z,20.05
2018-05-25T23:00:15.540Z,19.71
2018-05-25T23:03:39.241Z,19.88
2018-05-25T23:07:02.937Z,19.63
2018-05-25T23:10:28.216Z,19.50
2018-05-25T23:13:51.643Z,19.54
2018-05-25T23:17:15.123Z,19.19
2018-05-25T23:20:38.532Z,19.07
2018-05-25T23:24:01.964Z,19.36
2018-05-25T23:27:25.382Z,18.98
2018-05-25T23:30:48.818Z,19.01
2018-05-25T23:34:14.379Z,19.29
2018-05-25T23:37:37.762Z,19.37
2018-05-25T23:41:01.261Z,19.24
2018-05-25T23:44:24.634Z,19.23
2018-05-25T23:47:50.368Z,19.23
2018-05-25T23:51:15.729Z,18.98
2018-05-25T23:54:39.145Z,18.95
2018-05-25T23:58:02.541Z,18.98
